createdAt,value
2023-05-06T21:23:52.265Z,52.53
2023-05-06T21:26:22.384Z,58.64
2023-05-06T21:28:52.843Z,59.60
2023-05-06T21:31:26.525Z,58.36
2023-05-06T21:33:58.058Z,56.66
2023-05-06T21:36:28.364Z,54.86
2023-05-06T21:39:04.517Z,54.04
2023-05-06T21:41:36.116Z,52.60
2023-05-06T21:44:07.908Z,51.38
2023-05-06T21:46:38.295Z,50.49
2023-05-06T21:49:08.918Z,49.78
2023-05-06T21:51:39.129Z,49.23
2023-05-06T21:54:09.164Z,48.89
2023-05-06T21:56:39.415Z,48.64
2023-05-06T21:59:09.574Z,48.32
2023-05-06T22:01:40.263Z,48.10
2023-05-06T22:04:12.314Z,47.90
2023-05-06T22:06:42.456Z,47.69
2023-05-06T22:09:12.778Z,47.58
2023-05-06T22:11:42.972Z,47.54
2023-05-06T22:14:14.963Z,47.50
2023-05-06T22:16:45.760Z,47.49
2023-05-06T22:19:16.073Z,47.49
2023-05-06T22:21:46.327Z,47.44
2023-05-06T22:24:16.400Z,47.55
2023-05-06T22:26:46.586Z,47.56
2023-05-06T22:29:16.780Z,47.56
2023-05-06T22:31:46.967Z,47.58
2023-05-06T22:34:17.348Z,47.59
2023-05-06T22:36:47.511Z,47.54
2023-05-06T22:39:17.651Z,47.54
2023-05-06T22:41:49.331Z,47.54
2023-05-06T22:44:19.430Z,47.56
2023-05-06T22:46:49.510Z,47.58
2023-05-06T22:49:20.350Z,47.63
2023-05-06T22:51:50.603Z,47.68
2023-05-06T22:54:20.745Z,47.68
2023-05-06T22:56:51.475Z,47.62
2023-05-06T22:59:21.676Z,47.57
2023-05-06T23:01:51.955Z,47.63
2023-05-06T23:04:22.297Z,47.54
2023-05-06T23:06:52.442Z,47.54
2023-05-06T23:09:22.555Z,47.51
2023-05-06T23:11:52.888Z,47.52
2023-05-06T23:14:23.289Z,47.50
2023-05-06T23:16:53.536Z,47.43
2023-05-06T23:19:23.887Z,47.41
2023-05-06T23:21:53.914Z,47.43
2023-05-06T23:24:24.145Z,47.40
2023-05-06T23:26:54.550Z,47.39
2023-05-06T23:29:24.752Z,47.31
2023-05-06T23:31:54.982Z,47.25
2023-05-06T23:34:25.110Z,47.25
2023-05-06T23:36:55.148Z,47.23
2023-05-06T23:39:25.210Z,47.24
2023-05-06T23:41:55.224Z,47.15
2023-05-06T23:44:25.319Z,47.15
2023-05-06T23:46:55.398Z,47.08
2023-05-06T23:49:25.504Z,47.12
2023-05-06T23:51:55.810Z,47.05
2023-05-06T23:54:25.938Z,47.03
2023-05-06T23:56:56.108Z,47.00
2023-05-06T23:59:26.479Z,46.92
